Libertyville, Indiana
Current Conditions -  °F | °C
As of 1:53 PM on Thursday 23 Oct 2014 (Local Time) from KHUF Reporting Station
Clear Clear  
Wind Chill: 56°   Ceiling: Unl
Heat Index: 56°   Visibility: 10mi
Dew Point: 43°   Wind: 6mph
Humidity: 62%   Direction: 210°SSW
Pressure: 30.21"   Gusts: NA
Location:  39.5107°N, 87.4772°W
Report Text: KHUF 231753Z 21005KT 10SM CLR 13/06 A3021 RMK AO2 SLP231 T01330061 10133 20017 58019
Loading
Personal Weather Stations






























Interactive Weather Map
Tropical Storm Tracking
New forecast layout! Learn more

10-Day Weather Forecast

Advertisements
Track Severe Weather on mobile